sensor_id;sensor_type;location;lat;lon;timestamp;pressure;altitude;pressure_sealevel;temperature;humidity
65997;BME280;52765;52.258;21.052;2022-08-14T00:02:02;100448.59;;;21.12;100.00
65997;BME280;52765;52.258;21.052;2022-08-14T00:04:29;100453.22;;;21.11;100.00
65997;BME280;52765;52.258;21.052;2022-08-14T00:06:55;100455.13;;;21.11;100.00
65997;BME280;52765;52.258;21.052;2022-08-14T00:09:21;100455.97;;;21.11;100.00
65997;BME280;52765;52.258;21.052;2022-08-14T00:11:46;100450.47;;;21.11;100.00
65997;BME280;52765;52.258;21.052;2022-08-14T00:14:12;100443.13;;;21.12;100.00
65997;BME280;52765;52.258;21.052;2022-08-14T00:16:44;100438.53;;;21.05;100.00
65997;BME280;52765;52.258;21.052;2022-08-14T00:19:11;100416.69;;;20.99;100.00
65997;BME280;52765;52.258;21.052;2022-08-14T00:21:36;100432.22;;;21.05;100.00
65997;BME280;52765;52.258;21.052;2022-08-14T00:24:02;100436.03;;;21.04;100.00
65997;BME280;52765;52.258;21.052;2022-08-14T00:26:28;100432.66;;;21.02;100.00
65997;BME280;52765;52.258;21.052;2022-08-14T00:28:55;100425.06;;;21.04;100.00
65997;BME280;52765;52.258;21.052;2022-08-14T00:31:21;100427.19;;;21.02;100.00
65997;BME280;52765;52.258;21.052;2022-08-14T00:33:47;100423.00;;;20.99;100.00
65997;BME280;52765;52.258;21.052;2022-08-14T00:36:12;100419.88;;;20.96;100.00
65997;BME280;52765;52.258;21.052;2022-08-14T00:38:38;100423.44;;;20.96;100.00
65997;BME280;52765;52.258;21.052;2022-08-14T00:41:06;100424.75;;;20.94;100.00
65997;BME280;52765;52.258;21.052;2022-08-14T00:43:33;100418.63;;;20.92;100.00
65997;BME280;52765;52.258;21.052;2022-08-14T00:46:09;100417.13;;;20.96;100.00
65997;BME280;52765;52.258;21.052;2022-08-14T00:48:36;100413.16;;;20.92;100.00
65997;BME280;52765;52.258;21.052;2022-08-14T00:51:07;100415.88;;;20.92;100.00
65997;BME280;52765;52.258;21.052;2022-08-14T00:53:34;100411.94;;;20.87;100.00
65997;BME280;52765;52.258;21.052;2022-08-14T00:56:01;100406.22;;;20.89;100.00
65997;BME280;52765;52.258;21.052;2022-08-14T00:58:27;100410.25;;;20.86;100.00
65997;BME280;52765;52.258;21.052;2022-08-14T01:01:00;100405.63;;;20.87;100.00
65997;BME280;52765;52.258;21.052;2022-08-14T01:03:27;100416.53;;;20.94;100.00
65997;BME280;52765;52.258;21.052;2022-08-14T01:05:57;100411.03;;;20.94;100.00
65997;BME280;52765;52.258;21.052;2022-08-14T01:08:28;100406.78;;;20.98;100.00
65997;BME280;52765;52.258;21.052;2022-08-14T01:10:54;100402.38;;;20.97;100.00
65997;BME280;52765;52.258;21.052;2022-08-14T01:13:30;100396.06;;;20.96;100.00
65997;BME280;52765;52.258;21.052;2022-08-14T01:15:59;100398.41;;;20.93;100.00
65997;BME280;52765;52.258;21.052;2022-08-14T01:18:26;100394.19;;;20.97;100.00
65997;BME280;52765;52.258;21.052;2022-08-14T01:21:11;100398.19;;;20.94;100.00
65997;BME280;52765;52.258;21.052;2022-08-14T01:23:42;100402.44;;;20.90;100.00
65997;BME280;52765;52.258;21.052;2022-08-14T01:26:09;100402.03;;;20.86;100.00
65997;BME280;52765;52.258;21.052;2022-08-14T01:28:37;100394.91;;;20.85;100.00
65997;BME280;52765;52.258;21.052;2022-08-14T01:31:09;100385.22;;;20.83;100.00
65997;BME280;52765;52.258;21.052;2022-08-14T01:33:37;100391.06;;;20.86;100.00
65997;BME280;52765;52.258;21.052;2022-08-14T01:36:06;100387.97;;;20.83;100.00
65997;BME280;52765;52.258;21.052;2022-08-14T01:38:32;100383.16;;;20.78;100.00
65997;BME280;52765;52.258;21.052;2022-08-14T01:41:10;100392.88;;;20.74;100.00
65997;BME280;52765;52.258;21.052;2022-08-14T01:43:49;100395.63;;;20.74;100.00
65997;BME280;52765;52.258;21.052;2022-08-14T01:46:17;100405.09;;;20.72;100.00
65997;BME280;52765;52.258;21.052;2022-08-14T01:48:43;100394.84;;;20.67;100.00
65997;BME280;52765;52.258;21.052;2022-08-14T01:51:11;100399.44;;;20.66;100.00
65997;BME280;52765;52.258;21.052;2022-08-14T01:53:42;100409.13;;;20.69;100.00
65997;BME280;52765;52.258;21.052;2022-08-14T01:56:09;100416.53;;;20.68;100.00
65997;BME280;52765;52.258;21.052;2022-08-14T01:58:35;100415.66;;;20.68;100.00
65997;BME280;52765;52.258;21.052;2022-08-14T02:01:01;100415.22;;;20.71;100.00
65997;BME280;52765;52.258;21.052;2022-08-14T02:03:30;100414.16;;;20.72;100.00
65997;BME280;52765;52.258;21.052;2022-08-14T02:06:02;100420.47;;;20.73;100.00
65997;BME280;52765;52.258;21.052;2022-08-14T02:08:27;100419.66;;;20.72;100.00
65997;BME280;52765;52.258;21.052;2022-08-14T02:10:57;100418.56;;;20.73;100.00
65997;BME280;52765;52.258;21.052;2022-08-14T02:13:45;100417.28;;;20.76;100.00
65997;BME280;52765;52.258;21.052;2022-08-14T02:16:21;100405.97;;;20.72;100.00
65997;BME280;52765;52.258;21.052;2022-08-14T02:18:54;100409.13;;;20.69;100.00
65997;BME280;52765;52.258;21.052;2022-08-14T02:21:20;100411.88;;;20.69;100.00
65997;BME280;52765;52.258;21.052;2022-08-14T02:23:47;100402.59;;;20.70;100.00
65997;BME280;52765;52.258;21.052;2022-08-14T02:26:34;100407.63;;;20.73;100.00
65997;BME280;52765;52.258;21.052;2022-08-14T02:29:07;100402.34;;;20.72;100.00
65997;BME280;52765;52.258;21.052;2022-08-14T02:31:40;100386.84;;;20.65;100.00
65997;BME280;52765;52.258;21.052;2022-08-14T02:34:30;100393.16;;;20.66;100.00
65997;BME280;52765;52.258;21.052;2022-08-14T02:37:03;100391.91;;;20.62;100.00
65997;BME280;52765;52.258;21.052;2022-08-14T02:39:30;100394.44;;;20.57;100.00
65997;BME280;52765;52.258;21.052;2022-08-14T02:41:57;100383.09;;;20.53;100.00
65997;BME280;52765;52.258;21.052;2022-08-14T02:44:23;100383.53;;;20.50;100.00
65997;BME280;52765;52.258;21.052;2022-08-14T02:46:52;100393.66;;;20.49;100.00
65997;BME280;52765;52.258;21.052;2022-08-14T02:49:19;100384.06;;;20.40;100.00
65997;BME280;52765;52.258;21.052;2022-08-14T02:51:52;100371.44;;;20.39;100.00
65997;BME280;52765;52.258;21.052;2022-08-14T02:54:18;100379.91;;;20.31;100.00
65997;BME280;52765;52.258;21.052;2022-08-14T02:56:44;100375.28;;;20.25;100.00
65997;BME280;52765;52.258;21.052;2022-08-14T02:59:13;100377.63;;;20.21;100.00
65997;BME280;52765;52.258;21.052;2022-08-14T03:01:40;100384.41;;;20.19;100.00
65997;BME280;52765;52.258;21.052;2022-08-14T03:04:05;100382.50;;;20.19;100.00
65997;BME280;52765;52.258;21.052;2022-08-14T03:06:31;100371.00;;;20.10;100.00
65997;BME280;52765;52.258;21.052;2022-08-14T03:08:57;100373.28;;;20.13;100.00
65997;BME280;52765;52.258;21.052;2022-08-14T03:11:24;100377.69;;;20.14;100.00
65997;BME280;52765;52.258;21.052;2022-08-14T03:13:51;100373.91;;;20.15;100.00
65997;BME280;52765;52.258;21.052;2022-08-14T03:16:20;100365.47;;;20.17;100.00
65997;BME280;52765;52.258;21.052;2022-08-14T03:18:47;100361.72;;;20.11;100.00
65997;BME280;52765;52.258;21.052;2022-08-14T03:21:15;100365.69;;;20.15;100.00
65997;BME280;52765;52.258;21.052;2022-08-14T03:23:44;100368.44;;;20.15;100.00
65997;BME280;52765;52.258;21.052;2022-08-14T03:26:16;100366.97;;;20.13;100.00
65997;BME280;52765;52.258;21.052;2022-08-14T03:28:44;100366.56;;;20.09;100.00
65997;BME280;52765;52.258;21.052;2022-08-14T03:31:11;100363.44;;;20.06;100.00
65997;BME280;52765;52.258;21.052;2022-08-14T03:33:37;100356.28;;;20.05;100.00
65997;BME280;52765;52.258;21.052;2022-08-14T03:36:11;100355.44;;;20.04;100.00
65997;BME280;52765;52.258;21.052;2022-08-14T03:38:38;100359.22;;;20.03;100.00
65997;BME280;52765;52.258;21.052;2022-08-14T03:41:11;100354.84;;;20.02;100.00
65997;BME280;52765;52.258;21.052;2022-08-14T03:43:45;100363.44;;;20.06;100.00
65997;BME280;52765;52.258;21.052;2022-08-14T03:46:11;100349.16;;;20.04;100.00
65997;BME280;52765;52.258;21.052;2022-08-14T03:48:38;100365.13;;;20.07;100.00
65997;BME280;52765;52.258;21.052;2022-08-14T03:51:06;100354.84;;;20.02;100.00
65997;BME280;52765;52.258;21.052;2022-08-14T03:53:37;100347.25;;;20.04;100.00
65997;BME280;52765;52.258;21.052;2022-08-14T03:56:05;100356.28;;;20.05;100.00
65997;BME280;52765;52.258;21.052;2022-08-14T03:58:31;100355.22;;;20.06;100.00
65997;BME280;52765;52.258;21.052;2022-08-14T04:00:57;100350.59;;;20.06;100.00
65997;BME280;52765;52.258;21.052;2022-08-14T04:03:24;100339.25;;;20.03;100.00
65997;BME280;52765;52.258;21.052;2022-08-14T04:05:51;100348.25;;;20.10;100.00
65997;BME280;52765;52.258;21.052;2022-08-14T04:08:17;100352.03;;;20.15;100.00
65997;BME280;52765;52.258;21.052;2022-08-14T04:10:43;100362.53;;;20.19;100.00
65997;BME280;52765;52.258;21.052;2022-08-14T04:13:11;100356.16;;;20.25;100.00
65997;BME280;52765;52.258;21.052;2022-08-14T04:15:37;100365.16;;;20.32;100.00
65997;BME280;52765;52.258;21.052;2022-08-14T04:18:05;100359.44;;;20.40;100.00
65997;BME280;52765;52.258;21.052;2022-08-14T04:20:36;100366.13;;;20.44;100.00
65997;BME280;52765;52.258;21.052;2022-08-14T04:23:02;100360.03;;;20.42;100.00
65997;BME280;52765;52.258;21.052;2022-08-14T04:25:29;100363.22;;;20.39;100.00
65997;BME280;52765;52.258;21.052;2022-08-14T04:28:04;100364.25;;;20.38;100.00
65997;BME280;52765;52.258;21.052;2022-08-14T04:30:33;100364.91;;;20.40;100.00
65997;BME280;52765;52.258;21.052;2022-08-14T04:33:07;100367.81;;;20.45;100.00
65997;BME280;52765;52.258;21.052;2022-08-14T04:35:33;100376.63;;;20.47;100.00
65997;BME280;52765;52.258;21.052;2022-08-14T04:37:59;100383.38;;;20.45;100.00
65997;BME280;52765;52.258;21.052;2022-08-14T04:40:43;100371.22;;;20.41;100.00
65997;BME280;52765;52.258;21.052;2022-08-14T04:43:27;100385.44;;;20.49;100.00
65997;BME280;52765;52.258;21.052;2022-08-14T04:46:11;100390.66;;;20.58;100.00
65997;BME280;52765;52.258;21.052;2022-08-14T04:48:38;100382.44;;;20.64;100.00
65997;BME280;52765;52.258;21.052;2022-08-14T04:51:08;100382.38;;;20.71;100.00
65997;BME280;52765;52.258;21.052;2022-08-14T04:53:35;100382.59;;;20.69;100.00
65997;BME280;52765;52.258;21.052;2022-08-14T04:56:05;100374.84;;;20.60;100.00
65997;BME280;52765;52.258;21.052;2022-08-14T04:58:32;100375.94;;;20.59;100.00
65997;BME280;52765;52.258;21.052;2022-08-14T05:00:59;100380.28;;;20.66;100.00
65997;BME280;52765;52.258;21.052;2022-08-14T05:03:29;100373.94;;;20.73;100.00
65997;BME280;52765;52.258;21.052;2022-08-14T05:05:59;100367.19;;;20.75;100.00
65997;BME280;52765;52.258;21.052;2022-08-14T05:08:25;100368.47;;;20.73;100.00
65997;BME280;52765;52.258;21.052;2022-08-14T05:10:55;100371.97;;;20.80;100.00
65997;BME280;52765;52.258;21.052;2022-08-14T05:13:23;100374.44;;;20.88;100.00
65997;BME280;52765;52.258;21.052;2022-08-14T05:15:49;100369.66;;;20.83;100.00
65997;BME280;52765;52.258;21.052;2022-08-14T05:18:19;100373.03;;;21.04;100.00
65997;BME280;52765;52.258;21.052;2022-08-14T05:20:48;100373.78;;;21.11;100.00
65997;BME280;52765;52.258;21.052;2022-08-14T05:23:16;100364.47;;;21.19;100.00
65997;BME280;52765;52.258;21.052;2022-08-14T05:25:43;100370.09;;;21.24;100.00
65997;BME280;52765;52.258;21.052;2022-08-14T05:28:15;100370.09;;;21.42;100.00
65997;BME280;52765;52.258;21.052;2022-08-14T05:30:51;100371.88;;;21.55;100.00
65997;BME280;52765;52.258;21.052;2022-08-14T05:33:19;100360.31;;;21.72;100.00
65997;BME280;52765;52.258;21.052;2022-08-14T05:35:46;100370.25;;;21.85;100.00
65997;BME280;52765;52.258;21.052;2022-08-14T05:38:14;100371.00;;;21.92;100.00
65997;BME280;52765;52.258;21.052;2022-08-14T05:40:41;100371.69;;;21.87;100.00
65997;BME280;52765;52.258;21.052;2022-08-14T05:43:08;100369.88;;;21.81;100.00
65997;BME280;52765;52.258;21.052;2022-08-14T05:45:34;100370.56;;;21.76;100.00
65997;BME280;52765;52.258;21.052;2022-08-14T05:48:01;100367.31;;;21.68;100.00
65997;BME280;52765;52.258;21.052;2022-08-14T05:50:27;100373.47;;;21.63;100.00
65997;BME280;52765;52.258;21.052;2022-08-14T05:52:53;100359.38;;;21.59;100.00
65997;BME280;52765;52.258;21.052;2022-08-14T05:55:19;100363.59;;;21.62;100.00
65997;BME280;52765;52.258;21.052;2022-08-14T05:57:57;100348.78;;;21.63;100.00
65997;BME280;52765;52.258;21.052;2022-08-14T06:00:25;100350.25;;;21.66;100.00
65997;BME280;52765;52.258;21.052;2022-08-14T06:02:51;100350.16;;;21.72;100.00
65997;BME280;52765;52.258;21.052;2022-08-14T06:05:16;100354.25;;;21.81;100.00
65997;BME280;52765;52.258;21.052;2022-08-14T06:10:08;100351.97;;;21.97;100.00
65997;BME280;52765;52.258;21.052;2022-08-14T06:12:35;100347.28;;;21.97;100.00
65997;BME280;52765;52.258;21.052;2022-08-14T06:15:01;100363.66;;;22.04;100.00
65997;BME280;52765;52.258;21.052;2022-08-14T06:17:26;100348.88;;;22.05;100.00
65997;BME280;52765;52.258;21.052;2022-08-14T06:19:52;100349.56;;;22.01;100.00
65997;BME280;52765;52.258;21.052;2022-08-14T06:22:18;100343.31;;;22.12;100.00
65997;BME280;52765;52.258;21.052;2022-08-14T06:24:44;100348.66;;;22.37;100.00
65997;BME280;52765;52.258;21.052;2022-08-14T06:27:09;100354.53;;;22.52;100.00
65997;BME280;52765;52.258;21.052;2022-08-14T06:29:36;100344.97;;;22.43;100.00
65997;BME280;52765;52.258;21.052;2022-08-14T06:32:02;100344.91;;;22.31;100.00
65997;BME280;52765;52.258;21.052;2022-08-14T06:34:28;100351.22;;;22.20;100.00
65997;BME280;52765;52.258;21.052;2022-08-14T06:36:54;100354.06;;;22.13;100.00
65997;BME280;52765;52.258;21.052;2022-08-14T06:39:23;100352.59;;;22.11;100.00
65997;BME280;52765;52.258;21.052;2022-08-14T06:41:49;100347.81;;;22.06;100.00
65997;BME280;52765;52.258;21.052;2022-08-14T06:44:14;100356.66;;;22.08;100.00
65997;BME280;52765;52.258;21.052;2022-08-14T06:46:40;100349.63;;;22.12;100.00
65997;BME280;52765;52.258;21.052;2022-08-14T06:49:06;100361.63;;;22.30;100.00
65997;BME280;52765;52.258;21.052;2022-08-14T06:51:31;100340.81;;;22.52;100.00
65997;BME280;52765;52.258;21.052;2022-08-14T06:53:57;100350.97;;;22.87;100.00
65997;BME280;52765;52.258;21.052;2022-08-14T06:56:23;100355.69;;;23.11;100.00
65997;BME280;52765;52.258;21.052;2022-08-14T06:58:48;100351.25;;;23.09;100.00
65997;BME280;52765;52.258;21.052;2022-08-14T07:01:14;100349.22;;;23.17;100.00
65997;BME280;52765;52.258;21.052;2022-08-14T07:03:58;100349.56;;;23.32;100.00
65997;BME280;52765;52.258;21.052;2022-08-14T07:06:42;100346.81;;;23.32;100.00
65997;BME280;52765;52.258;21.052;2022-08-14T07:09:09;100352.41;;;23.37;100.00
65997;BME280;52765;52.258;21.052;2022-08-14T07:11:35;100358.94;;;23.48;100.00
65997;BME280;52765;52.258;21.052;2022-08-14T07:14:01;100350.19;;;23.63;99.65
65997;BME280;52765;52.258;21.052;2022-08-14T07:16:26;100347.69;;;23.73;98.57
65997;BME280;52765;52.258;21.052;2022-08-14T07:18:53;100343.69;;;23.81;98.64
65997;BME280;52765;52.258;21.052;2022-08-14T07:21:18;100358.13;;;24.00;97.99
65997;BME280;52765;52.258;21.052;2022-08-14T07:23:44;100356.16;;;24.12;97.18
65997;BME280;52765;52.258;21.052;2022-08-14T07:26:10;100350.66;;;24.12;97.00
65997;BME280;52765;52.258;21.052;2022-08-14T07:28:38;100353.06;;;24.09;97.37
65997;BME280;52765;52.258;21.052;2022-08-14T07:31:07;100354.13;;;24.08;96.28
65997;BME280;52765;52.258;21.052;2022-08-14T07:33:42;100363.25;;;24.08;96.94
65997;BME280;52765;52.258;21.052;2022-08-14T07:36:11;100357.38;;;24.05;96.54
65997;BME280;52765;52.258;21.052;2022-08-14T07:38:37;100350.13;;;23.98;96.39
65997;BME280;52765;52.258;21.052;2022-08-14T07:41:06;100358.63;;;23.97;96.76
65997;BME280;52765;52.258;21.052;2022-08-14T07:43:33;100353.88;;;24.09;96.67
65997;BME280;52765;52.258;21.052;2022-08-14T07:45:59;100349.50;;;24.25;95.92
65997;BME280;52765;52.258;21.052;2022-08-14T07:48:25;100350.19;;;24.32;95.90
65997;BME280;52765;52.258;21.052;2022-08-14T07:50:53;100343.94;;;24.37;95.43
65997;BME280;52765;52.258;21.052;2022-08-14T07:53:19;100337.78;;;24.47;95.01
65997;BME280;52765;52.258;21.052;2022-08-14T07:55:47;100342.00;;;24.54;94.77
65997;BME280;52765;52.258;21.052;2022-08-14T07:58:14;100343.81;;;24.61;94.50
65997;BME280;52765;52.258;21.052;2022-08-14T08:00:40;100340.22;;;24.60;93.99
65997;BME280;52765;52.258;21.052;2022-08-14T08:03:07;100339.25;;;24.54;94.19
65997;BME280;52765;52.258;21.052;2022-08-14T08:05:37;100339.75;;;24.51;94.16
65997;BME280;52765;52.258;21.052;2022-08-14T08:08:04;100336.09;;;24.46;94.49
65997;BME280;52765;52.258;21.052;2022-08-14T08:10:30;100341.13;;;24.66;93.92
65997;BME280;52765;52.258;21.052;2022-08-14T08:13:06;100348.56;;;24.82;93.59
65997;BME280;52765;52.258;21.052;2022-08-14T08:15:35;100348.72;;;24.92;93.34
65997;BME280;52765;52.258;21.052;2022-08-14T08:18:03;100345.06;;;24.87;93.85
65997;BME280;52765;52.258;21.052;2022-08-14T08:20:47;100339.78;;;24.85;94.21
65997;BME280;52765;52.258;21.052;2022-08-14T08:23:14;100344.69;;;25.00;92.97
65997;BME280;52765;52.258;21.052;2022-08-14T08:25:42;100341.09;;;25.17;91.46
65997;BME280;52765;52.258;21.052;2022-08-14T08:28:22;100328.47;;;25.43;90.19
65997;BME280;52765;52.258;21.052;2022-08-14T08:30:54;100339.94;;;25.52;89.51
65997;BME280;52765;52.258;21.052;2022-08-14T08:33:26;100339.41;;;25.55;89.17
65997;BME280;52765;52.258;21.052;2022-08-14T08:35:56;100341.88;;;25.56;89.02
65997;BME280;52765;52.258;21.052;2022-08-14T08:38:24;100338.44;;;25.66;88.94
65997;BME280;52765;52.258;21.052;2022-08-14T08:40:54;100339.59;;;25.70;88.27
65997;BME280;52765;52.258;21.052;2022-08-14T08:43:28;100343.59;;;25.84;86.85
65997;BME280;52765;52.258;21.052;2022-08-14T08:48:26;100342.41;;;25.97;85.95
65997;BME280;52765;52.258;21.052;2022-08-14T08:50:55;100329.16;;;25.99;85.78
65997;BME280;52765;52.258;21.052;2022-08-14T08:53:21;100332.06;;;26.10;85.18
65997;BME280;52765;52.258;21.052;2022-08-14T08:55:46;100328.31;;;26.26;84.75
65997;BME280;52765;52.258;21.052;2022-08-14T08:58:15;100323.09;;;26.57;83.53
65997;BME280;52765;52.258;21.052;2022-08-14T09:00:46;100327.13;;;26.76;82.57
65997;BME280;52765;52.258;21.052;2022-08-14T09:03:14;100326.06;;;26.83;81.76
65997;BME280;52765;52.258;21.052;2022-08-14T09:05:56;100328.50;;;26.74;82.13
65997;BME280;52765;52.258;21.052;2022-08-14T09:08:25;100332.50;;;26.61;83.37
65997;BME280;52765;52.258;21.052;2022-08-14T09:10:52;100328.09;;;26.60;83.59
65997;BME280;52765;52.258;21.052;2022-08-14T09:13:19;100332.88;;;26.70;83.28
65997;BME280;52765;52.258;21.052;2022-08-14T09:15:47;100329.47;;;26.63;83.52
65997;BME280;52765;52.258;21.052;2022-08-14T09:18:19;100323.09;;;26.57;83.89
65997;BME280;52765;52.258;21.052;2022-08-14T09:20:48;100317.56;;;26.57;83.43
65997;BME280;52765;52.258;21.052;2022-08-14T09:23:14;100315.91;;;26.61;84.05
65997;BME280;52765;52.258;21.052;2022-08-14T09:25:42;100321.44;;;26.61;82.72
65997;BME280;52765;52.258;21.052;2022-08-14T09:28:09;100325.78;;;26.47;84.10
65997;BME280;52765;52.258;21.052;2022-08-14T09:30:37;100324.56;;;26.37;84.15
65997;BME280;52765;52.258;21.052;2022-08-14T09:36:14;100320.59;;;26.23;85.83
65997;BME280;52765;52.258;21.052;2022-08-14T09:38:50;100314.38;;;26.38;85.21
65997;BME280;52765;52.258;21.052;2022-08-14T09:46:57;100319.50;;;26.56;83.46
65997;BME280;52765;52.258;21.052;2022-08-14T09:49:37;100311.50;;;26.60;83.27
65997;BME280;52765;52.258;21.052;2022-08-14T09:54:36;100297.38;;;26.89;81.33
65997;BME280;52765;52.258;21.052;2022-08-14T09:57:03;100303.97;;;26.88;80.75
65997;BME280;52765;52.258;21.052;2022-08-14T09:59:40;100306.28;;;27.01;80.76
65997;BME280;52765;52.258;21.052;2022-08-14T10:02:18;100301.91;;;27.10;80.15
65997;BME280;52765;52.258;21.052;2022-08-14T10:04:44;100298.19;;;27.37;78.26
65997;BME280;52765;52.258;21.052;2022-08-14T10:07:09;100296.38;;;27.63;77.34
65997;BME280;52765;52.258;21.052;2022-08-14T10:09:48;100294.47;;;27.79;76.31
65997;BME280;52765;52.258;21.052;2022-08-14T10:12:14;100300.09;;;28.05;74.96
65997;BME280;52765;52.258;21.052;2022-08-14T10:14:39;100300.38;;;28.03;74.82
65997;BME280;52765;52.258;21.052;2022-08-14T10:17:05;100282.06;;;28.13;73.29
65997;BME280;52765;52.258;21.052;2022-08-14T10:19:32;100283.19;;;28.27;71.73
65997;BME280;52765;52.258;21.052;2022-08-14T10:22:07;100287.91;;;28.11;72.80
65997;BME280;52765;52.258;21.052;2022-08-14T10:24:39;100287.06;;;27.95;74.45
65997;BME280;52765;52.258;21.052;2022-08-14T10:27:20;100292.22;;;27.71;75.54
65997;BME280;52765;52.258;21.052;2022-08-14T10:29:53;100282.00;;;27.72;76.80
65997;BME280;52765;52.258;21.052;2022-08-14T10:32:20;100280.06;;;27.72;76.34
65997;BME280;52765;52.258;21.052;2022-08-14T10:34:47;100280.06;;;27.82;75.42
65997;BME280;52765;52.258;21.052;2022-08-14T10:37:15;100286.25;;;28.00;75.16
65997;BME280;52765;52.258;21.052;2022-08-14T10:39:43;100274.91;;;28.32;74.08
65997;BME280;52765;52.258;21.052;2022-08-14T10:42:11;100272.69;;;28.45;73.47
65997;BME280;52765;52.258;21.052;2022-08-14T10:44:45;100283.19;;;28.42;73.57
65997;BME280;52765;52.258;21.052;2022-08-14T10:47:14;100270.19;;;28.43;72.67
65997;BME280;52765;52.258;21.052;2022-08-14T10:49:55;100278.50;;;28.53;72.41
65997;BME280;52765;52.258;21.052;2022-08-14T10:52:30;100278.22;;;28.55;70.85
65997;BME280;52765;52.258;21.052;2022-08-14T10:55:13;100272.97;;;28.48;70.89
65997;BME280;52765;52.258;21.052;2022-08-14T10:57:51;100273.50;;;28.50;70.29
65997;BME280;52765;52.258;21.052;2022-08-14T11:00:23;100268.81;;;28.35;72.00
65997;BME280;52765;52.258;21.052;2022-08-14T11:03:04;100264.66;;;28.17;73.39
65997;BME280;52765;52.258;21.052;2022-08-14T11:05:47;100265.75;;;28.32;73.64
65997;BME280;52765;52.258;21.052;2022-08-14T11:08:14;100266.31;;;28.34;73.11
65997;BME280;52765;52.258;21.052;2022-08-14T11:10:47;100261.31;;;28.36;72.99
65997;BME280;52765;52.258;21.052;2022-08-14T11:13:18;100257.72;;;28.35;72.23
65997;BME280;52765;52.258;21.052;2022-08-14T11:15:46;100264.09;;;28.26;72.10
65997;BME280;52765;52.258;21.052;2022-08-14T11:18:14;100255.50;;;27.96;73.32
65997;BME280;52765;52.258;21.052;2022-08-14T11:20:47;100261.81;;;27.81;74.72
65997;BME280;52765;52.258;21.052;2022-08-14T11:23:14;100249.13;;;28.01;74.41
65997;BME280;52765;52.258;21.052;2022-08-14T11:25:43;100249.13;;;28.01;74.61
65997;BME280;52765;52.258;21.052;2022-08-14T11:28:12;100249.44;;;28.15;74.73
65997;BME280;52765;52.258;21.052;2022-08-14T11:30:41;100242.50;;;28.43;72.32
65997;BME280;52765;52.258;21.052;2022-08-14T11:33:07;100242.19;;;28.75;70.56
65997;BME280;52765;52.258;21.052;2022-08-14T11:35:33;100242.47;;;28.74;70.54
65997;BME280;52765;52.258;21.052;2022-08-14T11:38:03;100237.47;;;28.71;71.04
65997;BME280;52765;52.258;21.052;2022-08-14T11:40:38;100231.13;;;28.65;70.91
65997;BME280;52765;52.258;21.052;2022-08-14T11:43:06;100245.25;;;28.53;71.61
65997;BME280;52765;52.258;21.052;2022-08-14T11:45:35;100236.41;;;28.62;71.08
65997;BME280;52765;52.258;21.052;2022-08-14T11:48:16;100240.81;;;28.73;70.96
65997;BME280;52765;52.258;21.052;2022-08-14T11:50:43;100243.50;;;28.98;71.51
65997;BME280;52765;52.258;21.052;2022-08-14T11:53:22;100243.19;;;29.05;70.29
65997;BME280;52765;52.258;21.052;2022-08-14T11:56:01;100243.72;;;29.18;69.68
65997;BME280;52765;52.258;21.052;2022-08-14T11:58:28;100238.75;;;29.14;69.52
65997;BME280;52765;52.258;21.052;2022-08-14T12:00:58;100241.28;;;28.95;69.60
65997;BME280;52765;52.258;21.052;2022-08-14T12:03:39;100240.81;;;28.73;71.04
65997;BME280;52765;52.258;21.052;2022-08-14T12:06:16;100238.50;;;28.95;70.43
65997;BME280;52765;52.258;21.052;2022-08-14T12:08:44;100230.25;;;28.80;70.09
65997;BME280;52765;52.258;21.052;2022-08-14T12:11:13;100225.50;;;28.91;69.56
65997;BME280;52765;52.258;21.052;2022-08-14T12:13:42;100211.88;;;29.05;69.37
65997;BME280;52765;52.258;21.052;2022-08-14T12:16:12;100206.94;;;29.51;66.54
65997;BME280;52765;52.258;21.052;2022-08-14T12:18:44;100219.06;;;29.66;65.63
65997;BME280;52765;52.258;21.052;2022-08-14T12:21:20;100206.78;;;29.77;65.72
65997;BME280;52765;52.258;21.052;2022-08-14T12:23:53;100193.53;;;30.03;63.10
65997;BME280;52765;52.258;21.052;2022-08-14T12:26:25;100209.97;;;30.29;59.53
65997;BME280;52765;52.258;21.052;2022-08-14T12:29:04;100216.13;;;30.55;59.03
65997;BME280;52765;52.258;21.052;2022-08-14T12:31:33;100222.78;;;30.84;58.61
65997;BME280;52765;52.258;21.052;2022-08-14T12:34:01;100224.28;;;31.00;57.56
65997;BME280;52765;52.258;21.052;2022-08-14T12:36:27;100214.50;;;31.27;56.02
65997;BME280;52765;52.258;21.052;2022-08-14T12:38:59;100219.09;;;31.36;53.82
65997;BME280;52765;52.258;21.052;2022-08-14T12:41:28;100215.81;;;31.53;53.38
65997;BME280;52765;52.258;21.052;2022-08-14T12:44:01;100218.66;;;31.67;51.89
65997;BME280;52765;52.258;21.052;2022-08-14T12:46:40;100202.44;;;31.75;53.86
65997;BME280;52765;52.258;21.052;2022-08-14T12:49:11;100207.16;;;31.36;52.90
65997;BME280;52765;52.258;21.052;2022-08-14T12:51:38;100195.88;;;31.03;54.65
65997;BME280;52765;52.258;21.052;2022-08-14T12:54:15;100204.53;;;31.02;55.42
65997;BME280;52765;52.258;21.052;2022-08-14T12:56:42;100200.19;;;31.14;54.94
65997;BME280;52765;52.258;21.052;2022-08-14T12:59:08;100192.91;;;31.18;54.08
65997;BME280;52765;52.258;21.052;2022-08-14T13:01:35;100192.94;;;30.94;53.38
65997;BME280;52765;52.258;21.052;2022-08-14T13:04:13;100177.16;;;31.09;52.62